createdAt,value
2022-09-07T00:00:50.534Z,982.204
2022-09-07T00:02:50.880Z,982.152
2022-09-07T00:04:50.416Z,982.093
2022-09-07T00:06:49.958Z,982.091
2022-09-07T00:08:50.146Z,982.078
2022-09-07T00:10:49.933Z,982.035
2022-09-07T00:12:49.937Z,982.060
2022-09-07T00:14:50.778Z,982.049
2022-09-07T00:16:50.070Z,982.060
2022-09-07T00:18:49.889Z,982.062
2022-09-07T00:20:50.691Z,982.098
2022-09-07T00:22:50.785Z,982.141
2022-09-07T00:24:50.028Z,982.176
2022-09-07T00:26:50.458Z,982.210
2022-09-07T00:28:50.382Z,982.239
2022-09-07T00:30:50.600Z,982.275
2022-09-07T00:32:50.627Z,982.223
2022-09-07T00:34:50.066Z,982.230
2022-09-07T00:36:50.296Z,982.193
2022-09-07T00:38:50.246Z,982.220
2022-09-07T00:40:50.144Z,982.200
2022-09-07T00:42:50.099Z,982.260
2022-09-07T00:44:50.005Z,982.354
2022-09-07T00:46:50.149Z,982.378
2022-09-07T00:48:50.244Z,982.410
2022-09-07T00:50:50.186Z,982.417
2022-09-07T00:52:50.320Z,982.327
2022-09-07T00:54:50.157Z,982.311
2022-09-07T00:56:50.300Z,982.319
2022-09-07T00:58:50.171Z,982.259
2022-09-07T01:00:50.063Z,982.288
2022-09-07T01:02:50.387Z,982.309
2022-09-07T01:04:50.279Z,982.376
2022-09-07T01:06:50.614Z,982.357
2022-09-07T01:08:50.597Z,982.331
2022-09-07T01:10:50.561Z,982.271
2022-09-07T01:12:50.574Z,982.256
2022-09-07T01:14:50.659Z,982.247
2022-09-07T01:16:50.648Z,982.252
2022-09-07T01:18:50.465Z,982.230
2022-09-07T01:20:50.492Z,982.276
2022-09-07T01:22:50.504Z,982.260
2022-09-07T01:24:50.261Z,982.276
2022-09-07T01:26:50.609Z,982.280
2022-09-07T01:28:50.388Z,982.270
2022-09-07T01:30:50.600Z,982.297
2022-09-07T01:32:50.712Z,982.266
2022-09-07T01:34:50.251Z,982.301
2022-09-07T01:36:50.450Z,982.310
2022-09-07T01:38:50.503Z,982.294
2022-09-07T01:40:50.715Z,982.269
2022-09-07T01:42:50.689Z,982.246
2022-09-07T01:44:49.940Z,982.238
2022-09-07T01:46:50.467Z,982.167
2022-09-07T01:48:50.611Z,982.113
2022-09-07T01:50:50.449Z,982.128
2022-09-07T01:52:50.548Z,982.092
2022-09-07T01:54:50.480Z,982.097
2022-09-07T01:56:50.738Z,982.141
2022-09-07T01:58:50.627Z,982.114
2022-09-07T02:00:50.619Z,982.146
2022-09-07T02:02:50.769Z,982.078
2022-09-07T02:04:50.606Z,982.019
2022-09-07T02:06:49.890Z,982.013
2022-09-07T02:08:50.344Z,981.989
2022-09-07T02:10:50.485Z,982.021
2022-09-07T02:12:50.649Z,982.000
2022-09-07T02:14:53.122Z,981.956
2022-09-07T02:16:50.316Z,982.000
2022-09-07T02:18:50.347Z,982.009
2022-09-07T02:20:50.379Z,982.047
2022-09-07T02:22:50.375Z,982.131
2022-09-07T02:24:50.462Z,982.103
2022-09-07T02:26:49.945Z,982.160
2022-09-07T02:28:49.822Z,982.232
2022-09-07T02:30:50.034Z,982.240
2022-09-07T02:32:49.949Z,982.240
2022-09-07T02:34:50.344Z,982.187
2022-09-07T02:36:50.714Z,982.254
2022-09-07T02:38:50.817Z,982.188
2022-09-07T02:40:49.829Z,982.231
2022-09-07T02:42:49.904Z,982.224
2022-09-07T02:44:50.280Z,982.241
2022-09-07T02:46:50.468Z,982.255
2022-09-07T02:48:50.466Z,982.308
2022-09-07T02:50:50.518Z,982.296
2022-09-07T02:52:49.811Z,982.303
2022-09-07T02:54:49.828Z,982.320
2022-09-07T02:56:50.101Z,982.350
2022-09-07T02:58:50.131Z,982.371
2022-09-07T03:00:50.087Z,982.377
2022-09-07T03:02:50.524Z,982.403
2022-09-07T03:04:50.337Z,982.392
2022-09-07T03:06:50.549Z,982.348
2022-09-07T03:08:50.676Z,982.346
2022-09-07T03:10:50.759Z,982.346
2022-09-07T03:12:49.826Z,982.274
2022-09-07T03:14:50.672Z,982.246
2022-09-07T03:16:49.865Z,982.219
2022-09-07T03:18:49.800Z,982.213
2022-09-07T03:20:49.846Z,982.254
2022-09-07T03:22:49.943Z,982.250
2022-09-07T03:24:50.796Z,982.292
2022-09-07T03:26:50.334Z,982.295
2022-09-07T03:28:50.535Z,982.261
2022-09-07T03:30:50.894Z,982.249
2022-09-07T03:32:50.088Z,982.146
2022-09-07T03:34:50.535Z,982.111
2022-09-07T03:36:50.274Z,981.993
2022-09-07T03:38:50.407Z,982.046
2022-09-07T03:40:50.453Z,982.138
2022-09-07T03:42:50.592Z,982.223
2022-09-07T03:44:50.600Z,982.253
2022-09-07T03:46:49.936Z,982.263
2022-09-07T03:48:50.570Z,982.281
2022-09-07T03:50:50.587Z,982.202
2022-09-07T03:52:50.406Z,982.171
2022-09-07T03:54:50.615Z,982.077
2022-09-07T03:56:50.759Z,982.014
2022-09-07T03:58:49.972Z,982.034
2022-09-07T04:00:50.722Z,982.021
2022-09-07T04:02:50.086Z,981.982
2022-09-07T04:04:50.075Z,981.963
2022-09-07T04:06:50.278Z,981.996
2022-09-07T04:08:50.265Z,981.994
2022-09-07T04:10:50.496Z,982.046
2022-09-07T04:12:50.795Z,982.020
2022-09-07T04:14:50.762Z,982.048
2022-09-07T04:16:50.147Z,982.043
2022-09-07T04:18:50.362Z,982.051
2022-09-07T04:20:50.365Z,982.087
2022-09-07T04:22:54.668Z,982.087
2022-09-07T04:24:50.627Z,982.122
2022-09-07T04:26:50.745Z,982.162
2022-09-07T04:28:50.676Z,982.240
2022-09-07T04:30:50.987Z,982.313
2022-09-07T04:32:50.550Z,982.325
2022-09-07T04:34:49.957Z,982.339
2022-09-07T04:36:50.291Z,982.305
2022-09-07T04:38:50.046Z,982.346
2022-09-07T04:40:50.037Z,982.348
2022-09-07T04:42:49.982Z,982.344
2022-09-07T04:44:50.089Z,982.284
2022-09-07T04:46:50.296Z,982.343
2022-09-07T04:48:50.232Z,982.412
2022-09-07T04:50:49.974Z,982.464
2022-09-07T04:52:49.868Z,982.458
2022-09-07T04:54:50.321Z,982.355
2022-09-07T04:56:50.655Z,982.343
2022-09-07T04:58:50.675Z,982.412
2022-09-07T05:00:50.689Z,982.474
2022-09-07T05:02:50.052Z,982.492
2022-09-07T05:04:49.884Z,982.556
2022-09-07T05:06:50.016Z,982.497
2022-09-07T05:08:50.082Z,982.446
2022-09-07T05:10:50.104Z,982.482
2022-09-07T05:12:49.999Z,982.462
2022-09-07T05:14:49.796Z,982.526
2022-09-07T05:16:50.567Z,982.514
2022-09-07T05:18:50.708Z,982.493
2022-09-07T05:20:50.736Z,982.479
2022-09-07T05:22:50.753Z,982.389
2022-09-07T05:24:49.876Z,982.383
2022-09-07T05:26:50.056Z,982.374
2022-09-07T05:28:51.010Z,982.395
2022-09-07T05:31:17.938Z,982.424
2022-09-07T05:32:50.542Z,982.404
2022-09-07T05:34:53.308Z,982.414
2022-09-07T05:36:50.385Z,982.429
2022-09-07T05:38:50.494Z,982.339
2022-09-07T05:40:50.514Z,982.345
2022-09-07T05:42:50.607Z,982.324
2022-09-07T05:44:50.664Z,982.328
2022-09-07T05:46:50.740Z,982.360
2022-09-07T05:48:49.782Z,982.341
2022-09-07T05:50:50.730Z,982.326
2022-09-07T05:52:50.668Z,982.279
2022-09-07T05:54:50.721Z,982.241
2022-09-07T05:56:50.497Z,982.269
2022-09-07T05:58:50.539Z,982.272
2022-09-07T06:00:50.751Z,982.232
2022-09-07T06:02:51.146Z,982.262
2022-09-07T06:04:50.118Z,982.248
2022-09-07T06:07:21.438Z,982.235
2022-09-07T06:08:50.328Z,982.263
2022-09-07T06:10:50.439Z,982.300
2022-09-07T06:12:50.550Z,982.300
2022-09-07T06:14:50.567Z,982.257
2022-09-07T06:16:50.511Z,982.226
2022-09-07T06:18:50.643Z,982.206
2022-09-07T06:20:49.860Z,982.288
2022-09-07T06:22:49.903Z,982.354
2022-09-07T06:24:50.016Z,982.381
2022-09-07T06:26:50.630Z,982.381
2022-09-07T06:28:58.123Z,982.361
2022-09-07T06:30:50.123Z,982.304
2022-09-07T06:32:49.996Z,982.329
2022-09-07T06:34:50.667Z,982.329
2022-09-07T06:36:50.007Z,982.286
2022-09-07T06:38:50.138Z,982.280
2022-09-07T06:40:50.668Z,982.282
2022-09-07T06:42:49.875Z,982.309
2022-09-07T06:44:50.013Z,982.283
2022-09-07T06:48:50.604Z,982.333
2022-09-07T06:50:50.689Z,982.354
2022-09-07T06:53:34.857Z,982.348
2022-09-07T06:56:49.937Z,982.316
2022-09-07T06:58:50.003Z,982.341
2022-09-07T07:00:50.245Z,982.289
2022-09-07T07:02:50.660Z,982.276
2022-09-07T07:04:50.429Z,982.223
2022-09-07T07:06:50.713Z,982.282
2022-09-07T07:08:50.678Z,982.331
2022-09-07T07:10:50.685Z,982.357
2022-09-07T07:12:49.809Z,982.317
2022-09-07T07:14:50.683Z,982.310
2022-09-07T07:16:50.333Z,982.268
2022-09-07T07:18:50.295Z,982.305
2022-09-07T07:20:50.392Z,982.298
2022-09-07T07:22:50.656Z,982.305
2022-09-07T07:24:50.585Z,982.268
2022-09-07T07:26:50.032Z,982.261
2022-09-07T07:29:00.201Z,982.278
2022-09-07T07:30:50.207Z,982.336
2022-09-07T07:32:50.178Z,982.324
2022-09-07T07:34:50.696Z,982.338
2022-09-07T07:36:50.129Z,982.331
2022-09-07T07:39:01.471Z,982.342
2022-09-07T07:42:49.959Z,982.336
2022-09-07T07:46:50.699Z,982.362
2022-09-07T07:48:50.197Z,982.396
2022-09-07T07:50:50.306Z,982.416
2022-09-07T07:54:49.819Z,982.469
2022-09-07T07:56:49.961Z,982.416
2022-09-07T07:58:50.002Z,982.438
2022-09-07T08:00:57.141Z,982.481
2022-09-07T08:02:50.413Z,982.535
2022-09-07T08:04:49.979Z,982.607
2022-09-07T08:06:50.216Z,982.655
2022-09-07T08:08:50.134Z,982.687
2022-09-07T08:10:50.151Z,982.755
2022-09-07T08:12:49.949Z,982.737
2022-09-07T08:14:49.959Z,982.745
2022-09-07T08:16:50.153Z,982.728
2022-09-07T08:18:50.258Z,982.682
2022-09-07T08:20:50.130Z,982.694
2022-09-07T08:22:50.249Z,982.683
2022-09-07T08:24:50.077Z,982.673
2022-09-07T08:26:50.358Z,982.734
2022-09-07T08:28:50.231Z,982.811
2022-09-07T08:30:50.183Z,982.796
2022-09-07T08:32:50.164Z,982.804
2022-09-07T08:34:49.820Z,982.822
2022-09-07T08:36:49.882Z,982.879
2022-09-07T08:38:49.880Z,982.886
2022-09-07T08:40:50.696Z,982.890
2022-09-07T08:42:49.778Z,982.880
2022-09-07T08:44:50.665Z,982.855
2022-09-07T08:46:50.563Z,982.852
2022-09-07T08:48:50.716Z,982.872
2022-09-07T08:50:49.845Z,982.852
2022-09-07T08:52:50.714Z,982.860
2022-09-07T08:54:50.783Z,982.848
2022-09-07T08:57:23.107Z,982.860
2022-09-07T08:58:50.951Z,982.858
2022-09-07T09:00:50.779Z,982.838
2022-09-07T09:03:31.213Z,982.847
2022-09-07T09:05:18.157Z,982.861
2022-09-07T09:06:51.070Z,982.843
2022-09-07T09:08:50.109Z,982.871
2022-09-07T09:10:50.198Z,982.824
2022-09-07T09:12:50.154Z,982.810
2022-09-07T09:14:50.433Z,982.805
2022-09-07T09:16:50.576Z,982.794
2022-09-07T09:18:49.882Z,982.744
2022-09-07T09:20:49.859Z,982.767
2022-09-07T09:22:50.737Z,982.745
2022-09-07T09:24:50.800Z,982.792
2022-09-07T09:28:50.009Z,982.701
2022-09-07T09:30:51.049Z,982.707
2022-09-07T09:32:50.311Z,982.650
2022-09-07T09:34:50.780Z,982.650
2022-09-07T09:36:50.301Z,982.631
2022-09-07T09:38:50.304Z,982.648
2022-09-07T09:40:50.527Z,982.577
2022-09-07T09:42:50.316Z,982.598
2022-09-07T09:44:50.147Z,982.529
2022-09-07T09:47:31.805Z,982.572
2022-09-07T09:48:50.221Z,982.605
2022-09-07T09:52:52.483Z,982.517
2022-09-07T09:54:50.356Z,982.543
2022-09-07T09:56:50.564Z,982.586
2022-09-07T10:01:26.812Z,982.578
2022-09-07T10:04:49.839Z,982.545
2022-09-07T10:06:50.176Z,982.545
2022-09-07T10:08:50.040Z,982.522
2022-09-07T10:10:50.057Z,982.485
2022-09-07T10:12:50.038Z,982.524
2022-09-07T10:14:50.173Z,982.501
2022-09-07T10:16:50.560Z,982.496
2022-09-07T10:18:50.631Z,982.484
2022-09-07T10:20:50.473Z,982.484
2022-09-07T10:22:51.971Z,982.558
2022-09-07T10:24:50.110Z,982.516
2022-09-07T10:26:50.213Z,982.516
2022-09-07T10:29:08.097Z,982.485
2022-09-07T10:30:50.766Z,982.450
2022-09-07T10:32:49.964Z,982.450
2022-09-07T10:34:50.531Z,982.408
2022-09-07T10:36:50.701Z,982.408
2022-09-07T10:38:50.560Z,982.399
2022-09-07T10:40:50.508Z,982.394
2022-09-07T10:43:23.140Z,982.315
2022-09-07T10:44:50.249Z,982.334
2022-09-07T10:46:58.879Z,982.297
2022-09-07T10:48:50.146Z,982.298
2022-09-07T10:50:49.898Z,982.267
2022-09-07T10:52:49.886Z,982.227
2022-09-07T10:54:50.535Z,982.098
2022-09-07T10:56:49.874Z,982.110
2022-09-07T10:59:04.594Z,982.091
2022-09-07T11:00:50.535Z,982.027
2022-09-07T11:03:26.379Z,982.078
2022-09-07T11:04:50.242Z,982.102
2022-09-07T11:06:50.464Z,982.098
2022-09-07T11:09:18.656Z,982.120
2022-09-07T11:10:50.214Z,982.110
2022-09-07T11:12:50.186Z,982.106
2022-09-07T11:14:50.110Z,982.058
2022-09-07T11:16:52.069Z,981.944
2022-09-07T11:18:51.177Z,981.924
2022-09-07T11:20:49.948Z,981.914
2022-09-07T11:22:49.938Z,981.865
2022-09-07T11:25:30.989Z,981.878
2022-09-07T11:26:50.150Z,981.867
2022-09-07T11:29:30.334Z,981.852
2022-09-07T11:30:50.578Z,981.806
2022-09-07T11:32:50.748Z,981.783
2022-09-07T11:34:54.265Z,981.746
2022-09-07T11:36:50.662Z,981.770
2022-09-07T11:38:50.546Z,981.745
2022-09-07T11:40:50.407Z,981.783
2022-09-07T11:42:50.611Z,981.736
2022-09-07T11:44:50.761Z,981.682
2022-09-07T11:46:49.857Z,981.704
2022-09-07T11:48:50.790Z,981.666
2022-09-07T11:50:50.771Z,981.741
2022-09-07T11:52:54.146Z,981.690
2022-09-07T11:54:50.148Z,981.731
2022-09-07T11:56:50.298Z,981.728
2022-09-07T11:58:50.696Z,981.707
2022-09-07T12:00:50.571Z,981.585
2022-09-07T12:03:01.276Z,981.520
2022-09-07T12:04:56.954Z,981.517
2022-09-07T12:06:50.686Z,981.393
2022-09-07T12:08:50.537Z,981.327
2022-09-07T12:10:50.617Z,981.343
2022-09-07T12:12:50.522Z,981.322
2022-09-07T12:14:50.492Z,981.291
2022-09-07T12:16:49.839Z,981.334
2022-09-07T12:18:50.715Z,981.319
2022-09-07T12:20:50.706Z,981.389
2022-09-07T12:22:50.594Z,981.360
2022-09-07T12:24:50.649Z,981.260
2022-09-07T12:26:49.989Z,981.255
2022-09-07T12:28:50.228Z,981.253
2022-09-07T12:30:50.326Z,981.253
2022-09-07T12:32:58.501Z,981.276
2022-09-07T12:34:50.267Z,981.337
2022-09-07T12:36:50.280Z,981.315
2022-09-07T12:38:50.180Z,981.341
2022-09-07T12:40:50.325Z,981.259
2022-09-07T12:42:50.315Z,981.177
2022-09-07T12:44:50.387Z,981.183
2022-09-07T12:46:50.657Z,981.162
2022-09-07T12:48:49.786Z,981.126
2022-09-07T12:50:51.353Z,981.107
2022-09-07T12:52:50.373Z,981.159
2022-09-07T12:55:27.013Z,981.099
2022-09-07T12:57:30.775Z,981.059
2022-09-07T12:58:50.341Z,981.008
2022-09-07T13:00:50.265Z,981.008
2022-09-07T13:02:50.218Z,981.119
2022-09-07T13:04:50.771Z,981.042
2022-09-07T13:07:03.791Z,981.044
2022-09-07T13:08:50.285Z,981.112
2022-09-07T13:10:50.230Z,981.112
2022-09-07T13:12:57.186Z,980.987
2022-09-07T13:14:51.467Z,980.969
2022-09-07T13:17:17.270Z,980.893
2022-09-07T13:18:49.813Z,980.895
2022-09-07T13:20:49.944Z,980.920
2022-09-07T13:22:49.869Z,980.895
2022-09-07T13:24:51.290Z,980.880
2022-09-07T13:26:51.638Z,980.893
2022-09-07T13:28:50.592Z,980.800
2022-09-07T13:30:50.892Z,980.793
2022-09-07T13:33:08.907Z,980.871
2022-09-07T13:34:50.264Z,980.826
2022-09-07T13:36:50.429Z,980.767
2022-09-07T13:38:50.725Z,980.729
2022-09-07T13:40:50.597Z,980.689
2022-09-07T13:42:50.480Z,980.653
2022-09-07T13:44:50.219Z,980.607
2022-09-07T13:46:50.374Z,980.629
2022-09-07T13:48:50.302Z,980.582
2022-09-07T13:50:50.437Z,980.606
2022-09-07T13:52:50.326Z,980.606
2022-09-07T13:54:50.215Z,980.578
2022-09-07T13:56:49.826Z,980.578
2022-09-07T13:58:50.806Z,980.589
2022-09-07T14:00:49.954Z,980.588
2022-09-07T14:02:57.276Z,980.581
2022-09-07T14:04:49.826Z,980.612
2022-09-07T14:06:50.072Z,980.567
2022-09-07T14:08:49.989Z,980.585
2022-09-07T14:10:50.065Z,980.523
2022-09-07T14:12:50.201Z,980.483
2022-09-07T14:14:50.069Z,980.470
2022-09-07T14:16:50.399Z,980.443
2022-09-07T14:18:50.400Z,980.467
2022-09-07T14:20:50.112Z,980.419
2022-09-07T14:22:53.803Z,980.386
2022-09-07T14:24:50.647Z,980.397
2022-09-07T14:26:50.766Z,980.363
2022-09-07T14:28:50.686Z,980.335
2022-09-07T14:30:50.794Z,980.332
2022-09-07T14:32:50.790Z,980.330
2022-09-07T14:34:50.056Z,980.371
2022-09-07T14:36:50.105Z,980.355
2022-09-07T14:39:06.320Z,980.324
2022-09-07T14:40:51.970Z,980.340
2022-09-07T14:42:50.209Z,980.277
2022-09-07T14:44:50.132Z,980.278
2022-09-07T14:46:57.502Z,980.268
2022-09-07T14:48:50.776Z,980.142
2022-09-07T14:51:29.290Z,980.149
2022-09-07T14:53:35.220Z,980.101
2022-09-07T14:54:50.647Z,979.975
2022-09-07T14:56:50.727Z,979.984
2022-09-07T14:58:50.722Z,980.021
2022-09-07T15:01:37.969Z,979.943
2022-09-07T15:02:50.485Z,979.981
2022-09-07T15:04:49.979Z,979.961
2022-09-07T15:07:01.779Z,979.941
2022-09-07T15:08:49.883Z,979.957
2022-09-07T15:11:33.774Z,979.983
2022-09-07T15:12:50.080Z,979.946
2022-09-07T15:14:49.849Z,979.947
2022-09-07T15:18:49.967Z,979.898
2022-09-07T15:20:50.029Z,979.873
2022-09-07T15:22:50.196Z,979.823
2022-09-07T15:24:50.369Z,979.767
2022-09-07T15:27:04.237Z,979.791
2022-09-07T15:29:18.567Z,979.785
2022-09-07T15:31:39.522Z,979.785
2022-09-07T15:32:50.298Z,979.762
2022-09-07T15:34:50.676Z,979.787
2022-09-07T15:36:50.100Z,979.746
2022-09-07T15:39:01.391Z,979.694
2022-09-07T15:41:23.544Z,979.654
2022-09-07T15:43:06.771Z,979.669
2022-09-07T15:44:50.781Z,979.737
2022-09-07T15:48:50.068Z,979.708
2022-09-07T15:50:50.406Z,979.647
2022-09-07T15:52:50.435Z,979.609
2022-09-07T15:54:50.350Z,979.633
2022-09-07T15:58:50.426Z,979.671
2022-09-07T16:03:08.890Z,979.631
2022-09-07T16:04:50.964Z,979.640
2022-09-07T16:06:50.521Z,979.569
2022-09-07T16:08:51.921Z,979.569
2022-09-07T16:11:04.629Z,979.614
2022-09-07T16:13:09.878Z,979.642
2022-09-07T16:14:56.956Z,979.641
2022-09-07T16:17:27.165Z,979.552
2022-09-07T16:18:50.502Z,979.596
2022-09-07T16:20:53.464Z,979.478
2022-09-07T16:23:14.196Z,979.504
2022-09-07T16:24:49.829Z,979.533
2022-09-07T16:26:49.980Z,979.493
2022-09-07T16:28:50.108Z,979.451
2022-09-07T16:30:49.825Z,979.479
2022-09-07T16:32:50.903Z,979.442
2022-09-07T16:34:50.508Z,979.454
2022-09-07T16:36:50.553Z,979.466
2022-09-07T16:38:50.532Z,979.471
2022-09-07T16:40:50.535Z,979.447
2022-09-07T16:42:50.578Z,979.458
2022-09-07T16:44:51.369Z,979.435
2022-09-07T16:46:51.106Z,979.403
2022-09-07T16:48:50.291Z,979.452
2022-09-07T16:50:50.220Z,979.382
2022-09-07T16:52:50.071Z,979.382
2022-09-07T16:54:51.529Z,979.350
2022-09-07T16:56:49.774Z,979.258
2022-09-07T16:58:51.643Z,979.277
2022-09-07T17:00:50.504Z,979.290
2022-09-07T17:02:50.646Z,979.312
2022-09-07T17:04:50.291Z,979.276
2022-09-07T17:06:50.531Z,979.267
2022-09-07T17:08:50.423Z,979.200
2022-09-07T17:10:50.323Z,979.245
2022-09-07T17:12:50.200Z,979.245
2022-09-07T17:14:50.130Z,979.284
2022-09-07T17:16:50.420Z,979.315
2022-09-07T17:19:32.581Z,979.330
2022-09-07T17:20:49.839Z,979.329
2022-09-07T17:22:49.926Z,979.341
2022-09-07T17:24:50.757Z,979.308
2022-09-07T17:26:50.015Z,979.269
2022-09-07T17:28:50.129Z,979.268
2022-09-07T17:30:49.989Z,979.234
2022-09-07T17:32:50.039Z,979.174
2022-09-07T17:34:51.901Z,979.217
2022-09-07T17:36:50.332Z,979.189
2022-09-07T17:39:13.765Z,979.204
2022-09-07T17:40:49.955Z,979.206
2022-09-07T17:43:41.814Z,979.258
2022-09-07T17:44:53.260Z,979.266
2022-09-07T17:46:50.388Z,979.241
2022-09-07T17:48:50.479Z,979.243
2022-09-07T17:50:50.378Z,979.258
2022-09-07T17:52:53.438Z,979.240
2022-09-07T17:54:50.322Z,979.236
2022-09-07T17:56:50.437Z,979.276
2022-09-07T17:58:51.224Z,979.276
2022-09-07T18:00:51.631Z,979.366
2022-09-07T18:02:50.766Z,979.366
2022-09-07T18:04:50.334Z,979.409
2022-09-07T18:06:50.801Z,979.403
2022-09-07T18:08:50.745Z,979.414
2022-09-07T18:12:50.522Z,979.414
2022-09-07T18:14:50.481Z,979.414
2022-09-07T18:16:51.032Z,979.540
2022-09-07T18:18:50.319Z,979.576
2022-09-07T18:20:50.243Z,979.599
2022-09-07T18:22:50.110Z,979.655
2022-09-07T18:24:50.025Z,979.690
2022-09-07T18:26:52.626Z,979.752
2022-09-07T18:29:19.174Z,979.759
2022-09-07T18:30:50.624Z,979.758
2022-09-07T18:32:50.666Z,979.804
2022-09-07T18:34:51.262Z,979.814
2022-09-07T18:36:50.809Z,979.817
2022-09-07T18:38:50.720Z,979.785
2022-09-07T18:40:51.519Z,979.781
2022-09-07T18:42:52.830Z,979.739
2022-09-07T18:45:29.101Z,979.682
2022-09-07T18:46:50.240Z,979.694
2022-09-07T18:48:50.239Z,979.689
2022-09-07T18:50:50.760Z,979.699
2022-09-07T18:52:53.985Z,979.737
2022-09-07T18:54:50.871Z,979.726
2022-09-07T18:56:50.172Z,979.743
2022-09-07T18:58:50.084Z,979.753
2022-09-07T19:00:50.348Z,979.780
2022-09-07T19:02:50.661Z,979.824
2022-09-07T19:06:50.425Z,979.898
2022-09-07T19:08:50.305Z,979.882
2022-09-07T19:10:50.233Z,979.859
2022-09-07T19:12:50.081Z,979.863
2022-09-07T19:14:50.249Z,979.840
2022-09-07T19:16:50.432Z,979.851
2022-09-07T19:18:50.355Z,979.866
2022-09-07T19:20:50.328Z,979.847
2022-09-07T19:22:50.119Z,979.834
2022-09-07T19:24:49.953Z,979.778
2022-09-07T19:26:50.214Z,979.796
2022-09-07T19:28:49.900Z,979.755
2022-09-07T19:30:49.799Z,979.731
2022-09-07T19:32:50.796Z,979.741
2022-09-07T19:34:50.283Z,979.694
2022-09-07T19:36:50.475Z,979.643
2022-09-07T19:38:50.359Z,979.664
2022-09-07T19:40:50.409Z,979.679
2022-09-07T19:42:50.305Z,979.688
2022-09-07T19:44:50.267Z,979.719
2022-09-07T19:46:50.795Z,979.739
2022-09-07T19:48:49.895Z,979.796
2022-09-07T19:50:49.825Z,979.765
2022-09-07T19:52:50.769Z,979.751
2022-09-07T19:54:50.729Z,979.729
2022-09-07T19:56:50.065Z,979.690
2022-09-07T19:58:49.939Z,979.662
2022-09-07T20:00:50.100Z,979.614
2022-09-07T20:02:50.318Z,979.607
2022-09-07T20:04:50.682Z,979.640
2022-09-07T20:06:50.650Z,979.674
2022-09-07T20:08:50.578Z,979.665
2022-09-07T20:10:50.499Z,979.708
2022-09-07T20:12:50.597Z,979.692
2022-09-07T20:14:50.570Z,979.692
2022-09-07T20:16:50.681Z,979.706
2022-09-07T20:18:50.655Z,979.705
2022-09-07T20:20:49.812Z,979.650
2022-09-07T20:22:50.680Z,979.627
2022-09-07T20:24:50.735Z,979.643
2022-09-07T20:26:50.219Z,979.595
2022-09-07T20:29:26.513Z,979.612
2022-09-07T20:30:50.213Z,979.624
2022-09-07T20:32:50.185Z,979.643
2022-09-07T20:34:50.619Z,979.669
2022-09-07T20:36:50.690Z,979.669
2022-09-07T20:38:50.582Z,979.618
2022-09-07T20:40:50.671Z,979.608
2022-09-07T20:42:50.626Z,979.564
2022-09-07T20:44:50.673Z,979.557
2022-09-07T20:46:50.190Z,979.515
2022-09-07T20:48:50.393Z,979.554
2022-09-07T20:50:50.376Z,979.543
2022-09-07T20:52:50.286Z,979.501
2022-09-07T20:54:50.213Z,979.505
2022-09-07T20:56:50.483Z,979.498
2022-09-07T20:58:50.209Z,979.517
2022-09-07T21:00:50.435Z,979.526
2022-09-07T21:02:50.565Z,979.538
2022-09-07T21:04:50.149Z,979.545
2022-09-07T21:06:50.469Z,979.543
2022-09-07T21:08:50.325Z,979.497
2022-09-07T21:10:50.304Z,979.502
2022-09-07T21:12:50.020Z,979.452
2022-09-07T21:14:49.960Z,979.452
2022-09-07T21:16:50.373Z,979.436
2022-09-07T21:18:50.384Z,979.379
2022-09-07T21:21:19.954Z,979.379
2022-09-07T21:22:49.891Z,979.230
2022-09-07T21:24:50.741Z,979.243
2022-09-07T21:26:49.952Z,979.254
2022-09-07T21:28:50.010Z,979.251
2022-09-07T21:30:49.855Z,979.218
2022-09-07T21:32:49.905Z,979.236
2022-09-07T21:34:50.073Z,979.229
2022-09-07T21:36:50.331Z,979.214
2022-09-07T21:38:50.251Z,979.220
2022-09-07T21:40:50.279Z,979.202
2022-09-07T21:42:50.020Z,979.150
2022-09-07T21:44:50.011Z,979.135
2022-09-07T21:46:50.490Z,979.106
2022-09-07T21:48:50.789Z,979.077
2022-09-07T21:50:50.776Z,979.056
2022-09-07T21:52:49.806Z,979.064
2022-09-07T21:54:50.788Z,979.069
2022-09-07T21:56:50.026Z,979.015
2022-09-07T21:58:49.960Z,979.011
2022-09-07T22:00:50.173Z,979.032
2022-09-07T22:02:50.413Z,979.060
2022-09-07T22:04:49.937Z,979.095
2022-09-07T22:06:50.192Z,979.091
2022-09-07T22:08:50.027Z,979.074
2022-09-07T22:10:50.075Z,979.105
2022-09-07T22:12:49.965Z,979.088
2022-09-07T22:14:49.980Z,979.129
2022-09-07T22:16:50.146Z,979.173
2022-09-07T22:18:50.270Z,979.232
2022-09-07T22:20:50.106Z,979.263
2022-09-07T22:22:50.184Z,979.357
2022-09-07T22:24:49.990Z,979.367
2022-09-07T22:26:50.188Z,979.421
2022-09-07T22:28:50.174Z,979.343
2022-09-07T22:30:50.007Z,979.296
2022-09-07T22:32:50.262Z,979.144
2022-09-07T22:34:50.303Z,979.142
2022-09-07T22:36:50.526Z,979.161
2022-09-07T22:38:50.614Z,979.203
2022-09-07T22:40:50.543Z,979.146
2022-09-07T22:42:50.312Z,979.101
2022-09-07T22:44:50.219Z,979.070
2022-09-07T22:46:50.637Z,978.981
2022-09-07T22:48:50.765Z,978.920
2022-09-07T22:50:50.710Z,978.804
2022-09-07T22:52:50.529Z,978.819
2022-09-07T22:54:50.450Z,978.793
2022-09-07T22:56:49.894Z,978.782
2022-09-07T22:58:49.864Z,978.747
2022-09-07T23:00:50.633Z,978.716
2022-09-07T23:02:50.541Z,978.722
2022-09-07T23:04:50.923Z,978.696
2022-09-07T23:06:50.448Z,978.688
2022-09-07T23:08:50.206Z,978.656
2022-09-07T23:10:50.279Z,978.627
2022-09-07T23:12:50.231Z,978.539
2022-09-07T23:14:50.180Z,978.508
2022-09-07T23:16:50.330Z,978.495
2022-09-07T23:18:50.297Z,978.528
2022-09-07T23:20:50.093Z,978.548
2022-09-07T23:22:50.338Z,978.529
2022-09-07T23:24:50.237Z,978.505
2022-09-07T23:26:50.540Z,978.491
2022-09-07T23:28:50.533Z,978.516
2022-09-07T23:30:50.479Z,978.466
2022-09-07T23:32:50.403Z,978.429
2022-09-07T23:34:50.061Z,978.463
2022-09-07T23:36:50.068Z,978.452
2022-09-07T23:38:49.981Z,978.392
2022-09-07T23:40:50.212Z,978.373
2022-09-07T23:42:50.066Z,978.348
2022-09-07T23:44:50.152Z,978.309
2022-09-07T23:46:50.536Z,978.314
2022-09-07T23:48:49.925Z,978.304
2022-09-07T23:50:49.808Z,978.252
2022-09-07T23:52:49.822Z,978.234
2022-09-07T23:54:50.664Z,978.245
2022-09-07T23:56:49.921Z,978.269
2022-09-07T23:58:49.869Z,978.269
